Current | Forecast
Updated: 12:30 AM +07 on April 29, 2017
Observed at Barnaul, Russia
Temperature 52°F
Humidity 76%
Dew Point 45°F
Wind NNW at 16 mph
Pressure 30.09 in (Steady)
Conditions Clear
Visibility -
UV N/A
Clouds
Yesterday's Maximum 73°F
Yesterday's Minimum 54°F approx.
Yesterday's Heating Degree Days 2 approx.
Sunrise5:00 AM +06
Sunset7:51 PM +06
Moon Rise7:17 AM +06
Moon Set11:18 PM +06
Moon PhaseMoon Phase
Waxing Crescent
Raw METARMETAR UNBB 281730Z 34007MPS CAVOK 11/07 Q1019 R24/CLRD66 NOSIG RMK QFE742


Monday
. High: 59° F.
Tuesday
. High: 66° F.
Wednesday
. High: 68° F.
Thursday
. High: 69° F.
Friday
. High: 75° F.
Saturday
. High: 78° F.
Sunday
. High: 78° F.
Monday
. High: 84° F.

Units: English | Metric

Find the Weather for any City, State or Zipcode, or Country:

U.S. State List | Severe Weather | Tropical Storms | Ski Conditions
United States | Canada | Central America | South America | Asia | Europe | Australia | Africa | Islands

Weather Underground

© Copyright 2017
The Weather Company, LLC